Time;durP1;ratioP1;P1;durP2;ratioP2;P2;SDS_P1;SDS_P2;PMS_P1;PMS_P2;Temp;Humidity;BMP_temperature;BMP_pressure;BME280_temperature;BME280_humidity;BME280_pressure;Samples;Min_cycle;Max_cycle;Signal;HPM_P1;HPM_P2
2022/04/01 00:00:23;;;;;;;0.57;0.50;;;;;;;-0.16;100.00;100318.63;6298026;28;20052;-73
2022/04/01 00:03:25;;;;;;;2.13;1.33;;;;;;;-0.15;100.00;100310.84;6279989;28;20496;-73
2022/04/01 00:06:27;;;;;;;3.65;0.70;;;;;;;-0.16;100.00;100318.63;6290449;28;20049;-73
2022/04/01 00:09:28;;;;;;;1.05;0.75;;;;;;;-0.17;100.00;100316.91;6292372;28;20068;-73
2022/04/01 00:12:29;;;;;;;0.88;0.70;;;;;;;-0.24;100.00;100321.31;6289617;28;20048;-73
2022/04/01 00:15:33;;;;;;;2.33;1.08;;;;;;;-0.21;100.00;100323.84;6295120;28;20503;-73
2022/04/01 00:18:34;;;;;;;2.30;1.13;;;;;;;-0.19;100.00;100316.91;6273491;28;20048;-73
2022/04/01 00:21:36;;;;;;;1.50;0.98;;;;;;;-0.17;100.00;100329.81;6272802;28;20053;-75
2022/04/01 00:24:37;;;;;;;1.95;1.17;;;;;;;-0.20;100.00;100335.03;6273708;28;20134;-73
2022/04/01 00:27:38;;;;;;;0.88;0.85;;;;;;;-0.20;100.00;100332.44;6273151;28;20048;-73
2022/04/01 00:30:41;;;;;;;2.95;0.85;;;;;;;-0.24;100.00;100331.63;6280874;28;20044;-73
2022/04/01 00:33:43;;;;;;;0.85;0.77;;;;;;;-0.20;100.00;100327.28;6272429;28;20078;-73
2022/04/01 00:36:45;;;;;;;0.90;0.90;;;;;;;-0.20;100.00;100329.88;6273292;28;20052;-73
2022/04/01 00:39:46;;;;;;;10.15;1.08;;;;;;;-0.18;100.00;100328.09;6272945;28;20451;-73
2022/04/01 00:42:48;;;;;;;3.40;0.80;;;;;;;-0.24;100.00;100338.53;6272483;28;20488;-73
2022/04/01 00:45:51;;;;;;;1.30;1.20;;;;;;;-0.21;100.00;100330.75;6273077;28;20052;-73
2022/04/01 00:48:52;;;;;;;0.73;0.70;;;;;;;-0.24;100.00;100334.22;6272639;28;20053;-72
2022/04/01 00:51:56;;;;;;;2.22;1.55;;;;;;;-0.28;100.00;100332.56;6272133;28;20053;-73
2022/04/01 00:54:59;;;;;;;1.75;0.90;;;;;;;-0.28;100.00;100333.41;6285839;28;20048;-73
2022/04/01 00:58:01;;;;;;;1.88;1.02;;;;;;;-0.32;100.00;100334.34;6297375;28;20040;-72
2022/04/01 01:01:04;;;;;;;0.82;0.77;;;;;;;-0.28;100.00;100329.97;6296637;28;20098;-73
2022/04/01 01:04:07;;;;;;;1.55;1.17;;;;;;;-0.28;100.00;100342.88;6297175;28;20052;-73
2022/04/01 01:07:09;;;;;;;1.52;1.00;;;;;;;-0.41;100.00;100337.09;6297082;28;20055;-73
2022/04/01 01:10:13;;;;;;;3.72;1.13;;;;;;;-0.42;100.00;100325.03;6296905;28;20048;-73
2022/04/01 01:13:15;;;;;;;1.40;0.85;;;;;;;-0.44;100.00;100329.38;6296752;28;20557;-73
2022/04/01 01:16:18;;;;;;;0.90;0.82;;;;;;;-0.49;100.00;100336.34;6296799;28;20048;-73
2022/04/01 01:19:20;;;;;;;1.27;0.80;;;;;;;-0.51;100.00;100341.50;6296848;28;20106;-73
2022/04/01 01:22:21;;;;;;;1.15;0.73;;;;;;;-0.51;100.00;100338.06;6291210;28;20825;-74
2022/04/01 01:25:24;;;;;;;0.40;0.40;;;;;;;-0.56;100.00;100345.03;6288157;28;20052;-75
2022/04/01 01:28:25;;;;;;;1.17;0.82;;;;;;;-0.62;100.00;100329.66;6271738;28;20052;-73
2022/04/01 01:31:28;;;;;;;0.38;0.38;;;;;;;-0.57;100.00;100336.44;6272116;28;20415;-73
2022/04/01 01:34:32;;;;;;;2.28;0.63;;;;;;;-0.58;100.00;100342.47;6288291;28;20052;-73
2022/04/01 01:37:33;;;;;;;3.38;1.55;;;;;;;-0.64;100.00;100329.66;6296445;28;20044;-75
2022/04/01 01:40:36;;;;;;;2.75;1.40;;;;;;;-0.58;100.00;100341.63;6295935;28;20514;-75
2022/04/01 01:43:37;;;;;;;0.25;0.25;;;;;;;-0.59;100.00;100332.16;6293358;28;20045;-73
2022/04/01 01:46:39;;;;;;;2.05;1.00;;;;;;;-0.59;100.00;100335.63;6288296;28;20054;-75
2022/04/01 01:54:42;;;;;;;0.98;0.55;;;;;;;-0.63;100.00;100333.09;6296029;28;20526;-72
2022/04/01 01:56:22;;;;;;;1.65;0.82;;;;;;;-0.64;100.00;100331.38;6296212;28;20056;-76
2022/04/01 01:59:24;;;;;;;0.75;0.65;;;;;;;-0.61;100.00;100342.50;6296402;28;20061;-73
2022/04/01 02:02:25;;;;;;;1.33;0.88;;;;;;;-0.67;100.00;100346.94;6295560;28;20451;-76
2022/04/01 02:05:26;;;;;;;0.52;0.52;;;;;;;-0.73;100.00;100340.09;6296098;28;20059;-76
2022/04/01 02:08:28;;;;;;;0.88;0.52;;;;;;;-0.77;100.00;100341.88;6288942;28;20040;-76
2022/04/01 02:11:31;;;;;;;0.57;0.45;;;;;;;-0.72;100.00;100344.41;6270665;28;20630;-75
2022/04/01 02:14:32;;;;;;;0.45;0.45;;;;;;;-0.71;100.00;100343.53;6271366;28;20052;-74
2022/04/01 02:17:33;;;;;;;1.90;0.70;;;;;;;-0.69;100.00;100346.06;6271115;28;20045;-73
2022/04/01 02:20:35;;;;;;;3.30;1.10;;;;;;;-0.70;100.00;100340.06;6270476;28;20390;-74
2022/04/01 02:23:36;;;;;;;0.63;0.60;;;;;;;-0.74;100.00;100348.72;6271101;28;20060;-74
2022/04/01 02:26:38;;;;;;;1.73;1.33;;;;;;;-0.73;100.00;100341.81;6271102;28;20056;-73
2022/04/01 02:29:40;;;;;;;1.15;0.80;;;;;;;-0.76;100.00;100342.75;6271206;28;20056;-73
2022/04/01 02:32:43;;;;;;;0.77;0.77;;;;;;;-0.81;100.00;100342.81;6270485;28;20049;-74
2022/04/01 02:35:44;;;;;;;0.32;0.32;;;;;;;-0.78;100.00;100347.91;6271315;28;20056;-74
2022/04/01 02:38:45;;;;;;;1.50;1.13;;;;;;;-0.80;100.00;100352.25;6270840;28;20045;-74
2022/04/01 02:41:48;;;;;;;0.63;0.60;;;;;;;-0.84;100.00;100352.31;6270310;28;20056;-74
2022/04/01 02:44:49;;;;;;;0.30;0.30;;;;;;;-0.82;100.00;100354.00;6270954;28;20061;-73
2022/04/01 02:47:51;;;;;;;0.43;0.40;;;;;;;-0.82;100.00;100348.84;6270775;28;20052;-74
2022/04/01 02:50:52;;;;;;;0.45;0.40;;;;;;;-0.84;100.00;100345.41;6270383;28;20055;-73
2022/04/01 02:53:53;;;;;;;0.50;0.50;;;;;;;-0.82;100.00;100359.16;6270703;28;20148;-74
2022/04/01 02:56:57;;;;;;;5.68;1.00;;;;;;;-0.80;100.00;100356.56;6272156;28;20045;-73
2022/04/01 02:59:58;;;;;;;0.22;0.22;;;;;;;-0.76;100.00;100355.63;6274786;28;20049;-75
2022/04/01 03:03:00;;;;;;;0.57;0.50;;;;;;;-0.70;100.00;100352.97;6275110;28;20064;-76
2022/04/01 03:06:01;;;;;;;0.93;0.43;;;;;;;-0.72;100.00;100354.72;6275205;28;20052;-74
2022/04/01 03:09:03;;;;;;;1.30;0.50;;;;;;;-0.79;100.00;100364.25;6275323;28;20416;-74
2022/04/01 03:12:07;;;;;;;0.70;0.32;;;;;;;-0.78;100.00;100355.63;6274476;28;20040;-76
2022/04/01 03:15:09;;;;;;;1.75;0.75;;;;;;;-0.78;100.00;100362.53;6275044;28;20514;-74
2022/04/01 03:18:10;;;;;;;0.30;0.25;;;;;;;-0.78;100.00;100359.94;6274736;28;20045;-76
2022/04/01 03:21:12;;;;;;;0.47;0.35;;;;;;;-0.74;100.00;100361.63;6274320;28;20048;-74
2022/04/01 03:24:14;;;;;;;0.75;0.57;;;;;;;-0.69;100.00;100361.56;6280480;28;20048;-73
2022/04/01 03:27:16;;;;;;;2.65;1.23;;;;;;;-0.71;100.00;100373.63;6285646;28;20049;-74
2022/04/01 03:30:19;;;;;;;0.82;0.57;;;;;;;-0.73;100.00;100373.63;6287071;28;20041;-74
2022/04/01 03:33:20;;;;;;;4.32;0.50;;;;;;;-0.68;100.00;100368.41;6274462;28;20504;-73
2022/04/01 03:36:22;;;;;;;1.60;0.95;;;;;;;-0.68;100.00;100374.47;6283019;28;20045;-74
2022/04/01 03:39:24;;;;;;;4.18;1.55;;;;;;;-0.68;100.00;100379.63;6299091;28;20135;-74
2022/04/01 03:42:30;;;;;;;3.58;1.08;;;;;;;-0.71;100.00;100376.22;6297723;28;20063;-73
2022/04/01 03:45:33;;;;;;;0.80;0.68;;;;;;;-0.72;100.00;100379.69;6272683;28;20114;-74
2022/04/01 03:48:39;;;;;;;1.33;0.65;;;;;;;-0.73;100.00;100378.78;6272345;28;20049;-74
2022/04/01 03:51:43;;;;;;;0.43;0.43;;;;;;;-0.74;100.00;100371.94;6272087;28;20504;-73
2022/04/01 03:54:47;;;;;;;0.82;0.60;;;;;;;-0.70;100.00;100371.03;6270147;28;20049;-74
2022/04/01 03:57:53;;;;;;;1.40;0.93;;;;;;;-0.67;100.00;100373.56;6272365;28;20052;-74
2022/04/01 04:00:55;;;;;;;1.67;0.80;;;;;;;-0.70;100.00;100375.34;6271464;28;20049;-74
2022/04/01 04:03:57;;;;;;;0.30;0.30;;;;;;;-0.68;100.00;100378.72;6272338;28;20042;-73
2022/04/01 04:06:59;;;;;;;1.15;0.90;;;;;;;-0.67;100.00;100378.72;6272180;28;20045;-74
2022/04/01 04:10:00;;;;;;;2.15;0.75;;;;;;;-0.66;100.00;100389.91;6270653;28;20049;-73
2022/04/01 04:13:06;;;;;;;0.47;0.47;;;;;;;-0.67;100.00;100385.63;6272340;28;20053;-74
2022/04/01 04:16:16;;;;;;;1.35;0.65;;;;;;;-0.66;100.00;100393.34;6288257;28;20048;-74
2022/04/01 04:19:23;;;;;;;;;;;;;;;-0.67;100.00;100398.53;6298480;28;20051;-74
2022/04/01 04:22:30;;;;;;;1.60;1.05;;;;;;;-0.67;100.00;100403.69;6286057;28;19920;-74
2022/04/01 04:25:35;;;;;;;0.47;0.47;;;;;;;-0.69;100.00;100393.38;6273327;28;20056;-74
2022/04/01 04:28:40;;;;;;;1.45;0.70;;;;;;;-0.70;100.00;100401.13;6273315;28;20064;-74
2022/04/01 04:31:46;;;;;;;2.78;1.27;;;;;;;-0.67;100.00;100412.28;6271808;28;20041;-73
2022/04/01 04:34:51;;;;;;;2.30;1.58;;;;;;;-0.73;100.00;100404.59;6273077;28;20053;-73
2022/04/01 04:37:56;;;;;;;0.45;0.45;;;;;;;-0.72;100.00;100413.22;6272169;28;20051;-73
2022/04/01 04:40:58;;;;;;;2.15;1.13;;;;;;;-0.74;100.00;100417.53;6271693;28;20048;-74
2022/04/01 04:44:02;;;;;;;1.02;0.60;;;;;;;-0.77;100.00;100411.53;6272796;28;20057;-74
2022/04/01 04:47:06;;;;;;;3.15;1.60;;;;;;;-0.74;100.00;100415.78;6273129;28;20084;-73
2022/04/01 04:50:09;;;;;;;1.45;0.88;;;;;;;-0.77;100.00;100413.28;6272503;28;20053;-75
2022/04/01 04:53:13;;;;;;;1.02;0.60;;;;;;;-0.78;100.00;100416.69;6272509;28;20053;-74
2022/04/01 04:56:15;;;;;;;0.63;0.45;;;;;;;-0.77;100.00;100424.44;6272690;28;20045;-74
2022/04/01 04:59:18;;;;;;;1.08;0.75;;;;;;;-0.74;100.00;100426.13;6272276;28;20045;-74
2022/04/01 05:02:33;;;;;;;1.15;0.82;;;;;;;-0.79;100.00;100420.16;6272092;28;20056;-74
2022/04/01 05:05:39;;;;;;;0.55;0.45;;;;;;;-0.74;100.00;100430.41;6272042;28;20095;-74
2022/04/01 05:08:51;;;;;;;0.98;0.63;;;;;;;-0.73;100.00;100434.69;6283139;28;20057;-74
2022/04/01 05:12:03;;;;;;;2.30;1.33;;;;;;;-0.74;100.00;100435.59;6292495;28;20052;-74
2022/04/01 05:15:09;;;;;;;0.50;0.22;;;;;;;-0.73;100.00;100434.69;6282471;28;20044;-74
2022/04/01 05:18:13;;;;;;;1.45;1.23;;;;;;;-0.75;100.00;100433.88;6271801;28;20478;-72
2022/04/01 05:21:20;;;;;;;1.35;1.05;;;;;;;-0.70;100.00;100445.84;6271067;28;20155;-73
2022/04/01 05:24:27;;;;;;;1.25;0.90;;;;;;;-0.70;100.00;100450.16;6268501;28;20075;-73
2022/04/01 05:27:30;;;;;;;1.17;0.70;;;;;;;-0.66;100.00;100457.00;6287257;28;20044;-73
2022/04/01 05:30:38;;;;;;;2.00;1.25;;;;;;;-0.66;100.00;100463.00;6272322;28;20060;-73
2022/04/01 05:33:43;;;;;;;1.25;0.95;;;;;;;-0.67;100.00;100461.31;6288239;28;20048;-74
2022/04/01 05:36:44;;;;;;;1.25;0.98;;;;;;;-0.64;100.00;100462.97;6296693;28;20052;-73
2022/04/01 05:39:49;;;;;;;1.83;1.52;;;;;;;-0.68;100.00;100469.03;6292109;28;20063;-73
2022/04/01 05:42:52;;;;;;;2.20;1.35;;;;;;;-0.65;100.00;100469.00;6287583;28;20055;-75
2022/04/01 05:45:57;;;;;;;2.15;1.25;;;;;;;-0.63;100.00;100468.13;6296493;28;20571;-73
2022/04/01 05:49:01;;;;;;;1.10;0.70;;;;;;;-0.65;100.00;100466.44;6296106;28;20059;-73
2022/04/01 05:52:03;;;;;;;8.10;1.98;;;;;;;-0.65;100.00;100463.84;6295559;28;20071;-73
2022/04/01 05:55:05;;;;;;;6.35;2.33;;;;;;;-0.65;100.00;100464.69;6296576;28;20048;-73
2022/04/01 05:58:07;;;;;;;1.10;0.88;;;;;;;-0.58;100.00;100475.81;6296341;28;20049;-73
2022/04/01 06:01:16;;;;;;;3.83;1.25;;;;;;;-0.54;100.00;100474.91;6295500;28;20079;-74
2022/04/01 06:04:44;;;;;;;3.55;1.90;;;;;;;-0.53;100.00;100481.78;6287511;28;20040;-72
2022/04/01 06:07:52;;;;;;;7.50;3.60;;;;;;;-0.43;100.00;100474.78;6278839;28;20040;-73
2022/04/01 06:11:03;;;;;;;2.75;1.33;;;;;;;-0.43;100.00;100487.69;6278781;28;20072;-76
2022/04/01 06:14:12;;;;;;;2.78;1.95;;;;;;;-0.44;100.00;100483.41;6271049;28;20049;-72
2022/04/01 06:17:23;;;;;;;1.70;1.23;;;;;;;-0.42;100.00;100479.06;6279568;28;20045;-72
2022/04/01 06:20:26;;;;;;;1.95;1.38;;;;;;;-0.37;100.00;100487.59;6270490;28;20053;-73
2022/04/01 06:23:36;;;;;;;2.92;1.50;;;;;;;-0.33;100.00;100484.09;6271259;28;20688;-73
2022/04/01 06:26:40;;;;;;;2.42;1.45;;;;;;;-0.29;100.00;100484.03;6271411;28;20045;-74
2022/04/01 06:29:44;;;;;;;3.47;2.15;;;;;;;-0.30;100.00;100489.22;6281858;28;20048;-76
2022/04/01 06:32:59;;;;;;;1.60;1.23;;;;;;;-0.28;100.00;100484.88;6297748;28;20055;-74
2022/04/01 06:36:03;;;;;;;3.30;1.13;;;;;;;-0.21;100.00;100491.69;6292547;28;20059;-74
2022/04/01 06:39:07;;;;;;;0.75;0.73;;;;;;;-0.18;100.00;100496.81;6300581;28;20052;-74
2022/04/01 06:42:15;;;;;;;6.65;3.00;;;;;;;-0.14;100.00;100495.03;6300049;28;20070;-74
2022/04/01 06:45:17;;;;;;;3.42;1.60;;;;;;;-0.08;100.00;100506.16;6300650;28;20404;-75
2022/04/01 06:48:19;;;;;;;4.80;2.25;;;;;;;-0.08;100.00;100508.72;6300352;28;20432;-74
2022/04/01 06:51:21;;;;;;;4.95;1.92;;;;;;;-0.05;100.00;100502.66;6299851;28;20134;-74
2022/04/01 06:54:22;;;;;;;1.13;1.00;;;;;;;-0.04;100.00;100502.66;6300600;28;20056;-74
2022/04/01 06:57:24;;;;;;;5.65;2.63;;;;;;;-0.03;100.00;100509.53;6300034;28;20056;-74
2022/04/01 07:00:26;;;;;;;2.17;1.33;;;;;;;-0.02;100.00;100508.63;6299651;28;20052;-74
2022/04/01 07:03:30;;;;;;;3.13;1.35;;;;;;;0.02;100.00;100503.44;6300365;28;20509;-74
2022/04/01 07:06:31;;;;;;;3.00;1.60;;;;;;;0.01;100.00;100504.31;6300130;28;20058;-74
2022/04/01 07:09:33;;;;;;;3.85;1.63;;;;;;;-0.07;100.00;100510.44;6300084;28;20174;-74
2022/04/01 07:12:34;;;;;;;3.47;1.88;;;;;;;-0.03;100.00;100508.66;6299484;28;20051;-74
2022/04/01 07:15:35;;;;;;;4.82;1.80;;;;;;;-0.03;100.00;100514.69;6300269;28;20048;-73
2022/04/01 07:18:39;;;;;;;4.15;1.90;;;;;;;0.04;100.00;100512.84;6299592;28;20045;-73
2022/04/01 07:21:40;;;;;;;1.77;1.13;;;;;;;0.09;100.00;100523.13;6299332;28;20056;-73
2022/04/01 07:24:41;;;;;;;2.67;1.52;;;;;;;0.15;100.00;100526.50;6299791;28;20055;-74
2022/04/01 07:27:43;;;;;;;1.92;0.95;;;;;;;0.16;100.00;100525.59;6280460;28;20048;-73
2022/04/01 07:30:44;;;;;;;6.00;2.00;;;;;;;0.23;100.00;100521.22;6282408;28;20049;-73
2022/04/01 07:33:47;;;;;;;5.47;1.85;;;;;;;0.27;100.00;100514.25;6291581;28;20052;-74
2022/04/01 07:36:49;;;;;;;2.20;1.02;;;;;;;0.27;100.00;100524.59;6274583;28;20045;-73
2022/04/01 07:39:51;;;;;;;1.02;0.88;;;;;;;0.35;100.00;100521.00;6283863;28;20044;-73
2022/04/01 07:42:53;;;;;;;2.08;1.23;;;;;;;0.38;100.00;100523.56;6278502;28;20113;-73
2022/04/01 07:45:55;;;;;;;1.83;1.65;;;;;;;0.40;100.00;100514.03;6282405;28;20408;-72
2022/04/01 07:48:58;;;;;;;2.22;1.27;;;;;;;0.39;100.00;100522.69;6279453;28;20484;-72
2022/04/01 07:51:59;;;;;;;2.40;1.05;;;;;;;0.41;100.00;100520.94;6291157;28;20048;-72
2022/04/01 07:55:01;;;;;;;1.33;0.90;;;;;;;0.47;100.00;100538.94;6300612;28;20508;-73
2022/04/01 07:58:02;;;;;;;2.88;1.75;;;;;;;0.53;100.00;100537.13;6299949;28;20048;-73
2022/04/01 08:01:04;;;;;;;1.42;1.02;;;;;;;0.59;100.00;100537.91;6288127;28;20040;-74
2022/04/01 08:04:07;;;;;;;2.80;1.48;;;;;;;0.65;100.00;100536.94;6298692;28;20052;-73
2022/04/01 08:07:08;;;;;;;20.75;8.25;;;;;;;0.72;100.00;100546.28;6297429;28;20060;-73
2022/04/01 08:10:10;;;;;;;11.20;6.22;;;;;;;0.79;100.00;100555.66;6273264;28;20116;-74
2022/04/01 08:13:11;;;;;;;3.65;2.08;;;;;;;0.70;100.00;100563.56;6273754;28;20045;-74
2022/04/01 08:16:13;;;;;;;5.60;2.65;;;;;;;0.70;100.00;100566.16;6273860;28;20137;-74
2022/04/01 08:19:16;;;;;;;3.70;1.85;;;;;;;0.78;100.00;100566.06;6280515;28;20044;-74
2022/04/01 08:22:19;;;;;;;4.03;2.28;;;;;;;0.82;100.00;100563.38;6289546;28;20071;-74
2022/04/01 08:25:20;;;;;;;6.75;3.97;;;;;;;0.80;100.00;100564.28;6298494;28;20055;-74
2022/04/01 08:28:21;;;;;;;17.65;7.00;;;;;;;0.86;100.00;100565.03;6298250;28;20055;-73
2022/04/01 08:31:24;;;;;;;9.68;4.10;;;;;;;0.85;100.00;100568.50;6297296;28;20056;-73
2022/04/01 08:34:27;;;;;;;4.82;2.88;;;;;;;0.93;100.00;100566.63;6280838;28;20062;-73
2022/04/01 08:37:28;;;;;;;5.00;2.22;;;;;;;0.89;100.00;100570.16;6272852;28;20045;-73
2022/04/01 08:40:32;;;;;;;6.97;2.85;;;;;;;1.02;100.00;100570.81;6272333;28;20052;-72
2022/04/01 08:43:36;;;;;;;5.05;1.90;;;;;;;1.09;100.00;100571.53;6272335;28;20455;-73
2022/04/01 08:46:37;;;;;;;4.07;1.92;;;;;;;1.19;100.00;100576.56;6269736;28;20067;-73
2022/04/01 08:49:40;;;;;;;0.98;0.88;;;;;;;1.35;100.00;100574.53;6272379;28;20083;-72
2022/04/01 08:52:41;;;;;;;5.75;2.67;;;;;;;1.37;100.00;100593.50;6272018;28;20056;-73
2022/04/01 08:55:46;;;;;;;0.88;0.80;;;;;;;1.50;100.00;100587.22;6272574;28;20059;-74
2022/04/01 08:58:48;;;;;;;2.42;1.83;;;;;;;1.46;100.00;100595.91;6272565;28;20572;-74
2022/04/01 09:01:50;;;;;;;21.17;5.57;;;;;;;1.53;100.00;100596.63;6271835;28;20048;-73
2022/04/01 09:05:04;;;;;;;11.13;5.03;;;;;;;1.50;100.00;100605.34;6272519;28;20053;-74
2022/04/01 09:08:07;;;;;;;1.85;1.27;;;;;;;1.49;100.00;100603.59;6272307;28;20479;-74
2022/04/01 09:11:11;;;;;;;4.13;2.45;;;;;;;1.55;100.00;100604.41;6269274;28;20047;-73
2022/04/01 09:14:21;;;;;;;4.07;1.63;;;;;;;1.53;100.00;100591.47;6266900;28;20045;-74
2022/04/01 09:17:39;;;;;;;3.60;1.83;;;;;;;1.59;100.00;100606.00;6263925;28;20060;-74
2022/04/01 09:20:48;;;;;;;2.20;1.80;;;;;;;1.59;100.00;100613.78;6269452;28;20049;-73
2022/04/01 09:23:50;;;;;;;1.88;1.65;;;;;;;1.68;100.00;100626.56;6271154;28;20075;-74
2022/04/01 09:26:55;;;;;;;3.45;1.67;;;;;;;1.70;100.00;100623.06;6271105;28;20060;-73
2022/04/01 09:29:57;;;;;;;3.63;1.88;;;;;;;1.71;100.00;100624.78;6270615;28;20053;-73
2022/04/01 09:33:00;;;;;;;2.28;1.33;;;;;;;1.80;100.00;100633.25;6268776;28;20049;-74
2022/04/01 09:36:07;;;;;;;3.95;1.85;;;;;;;1.85;100.00;100634.03;6268772;28;20052;-74
2022/04/01 09:39:10;;;;;;;6.95;2.15;;;;;;;1.87;100.00;100637.47;6277070;28;20086;-74
2022/04/01 09:42:12;;;;;;;2.15;1.30;;;;;;;1.85;100.00;100637.47;6276457;28;20504;-74
2022/04/01 09:45:17;;;;;;;6.95;1.42;;;;;;;1.92;100.00;100633.88;6269391;28;20053;-73
2022/04/01 09:48:21;;;;;;;2.42;1.23;;;;;;;2.02;100.00;100629.38;6270233;28;20430;-70
2022/04/01 09:51:24;;;;;;;2.40;1.65;;;;;;;2.07;100.00;100629.28;6245293;28;20429;-73
2022/04/01 09:54:25;;;;;;;3.38;1.85;;;;;;;2.08;100.00;100638.75;6245893;28;20056;-74
2022/04/01 09:57:28;;;;;;;1.52;1.05;;;;;;;2.16;100.00;100639.44;6245471;28;20049;-74
2022/04/01 10:00:30;;;;;;;2.95;1.50;;;;;;;2.16;100.00;100632.53;6245302;28;20041;-74
2022/04/01 10:03:32;;;;;;;3.22;1.50;;;;;;;2.21;100.00;100645.41;6279514;28;20052;-74
2022/04/01 10:06:36;;;;;;;4.80;1.88;;;;;;;2.23;100.00;100643.66;6283040;28;20065;-75
2022/04/01 10:09:39;;;;;;;1.70;1.55;;;;;;;2.26;100.00;100647.00;6295073;28;20041;-74
2022/04/01 10:12:43;;;;;;;1.48;1.10;;;;;;;2.36;100.00;100646.81;6277793;28;20416;-74
2022/04/01 10:15:45;;;;;;;1.38;0.93;;;;;;;2.39;100.00;100645.00;6270229;28;20048;-74
2022/04/01 10:18:48;;;;;;;1.27;0.90;;;;;;;2.41;100.00;100643.25;6236209;28;993768;-73
2022/04/01 10:21:52;;;;;;;2.10;0.80;;;;;;;2.42;100.00;100652.72;6270460;28;20048;-74
2022/04/01 10:25:00;;;;;;;1.30;0.98;;;;;;;2.44;100.00;100652.69;6271641;28;20061;-74
2022/04/01 10:28:02;;;;;;;3.30;1.10;;;;;;;2.49;100.00;100650.84;6271082;28;20416;-74
2022/04/01 10:31:04;;;;;;;1.52;0.70;;;;;;;2.45;100.00;100663.06;6270605;28;20484;-74
2022/04/01 10:34:22;;;;;;;1.85;0.95;;;;;;;2.36;100.00;100658.03;6273855;28;20055;-73
2022/04/01 10:37:26;;;;;;;2.40;1.63;;;;;;;2.41;100.00;100655.38;6296268;28;20057;-74
2022/04/01 10:40:32;;;;;;;2.20;1.08;;;;;;;2.42;100.00;100662.25;6295361;28;20047;-74
2022/04/01 10:43:33;;;;;;;1.55;1.17;;;;;;;2.48;100.00;100664.72;6275380;28;20075;-75
2022/04/01 10:46:38;;;;;;;1.35;1.25;;;;;;;2.54;100.00;100659.38;6271081;28;20053;-74
2022/04/01 10:53:34;;;;;;;2.35;1.52;;;;;;;2.63;100.00;100659.16;6270705;28;20057;-74
2022/04/01 10:56:37;;;;;;;1.77;0.77;;;;;;;2.54;100.00;100673.22;6271008;28;20561;-75
2022/04/01 10:59:41;;;;;;;1.45;0.68;;;;;;;2.45;100.00;100675.13;6270247;28;20095;-76
2022/04/01 11:02:44;;;;;;;1.00;0.60;;;;;;;2.47;100.00;100674.22;6269097;28;20520;-73
2022/04/01 11:05:45;;;;;;;1.58;0.98;;;;;;;2.57;100.00;100679.22;6269721;28;20053;-73
2022/04/01 11:08:53;;;;;;;1.40;1.10;;;;;;;2.66;100.00;100676.44;6269711;28;20041;-74
2022/04/01 11:12:27;;;;;;;1.38;0.90;;;;;;;2.73;100.00;100681.47;6269864;28;20496;-75
2022/04/01 11:15:29;;;;;;;1.45;0.82;;;;;;;2.60;100.00;100676.56;6270712;28;20489;-74
2022/04/01 11:18:30;;;;;;;1.88;1.13;;;;;;;2.69;100.00;100672.03;6271167;28;20045;-74
2022/04/01 11:21:32;;;;;;;0.73;0.60;;;;;;;2.77;100.00;100682.22;6274484;28;20056;-73
2022/04/01 11:24:38;;;;;;;1.30;1.10;;;;;;;2.79;100.00;100675.28;6272901;28;20416;-73
2022/04/01 11:27:48;;;;;;;1.45;1.02;;;;;;;2.77;100.00;100685.69;6275705;28;20162;-73
2022/04/01 11:31:11;;;;;;;6.47;1.23;;;;;;;2.87;100.00;100686.34;6273246;28;20075;-74
2022/04/01 11:34:13;;;;;;;1.25;1.10;;;;;;;2.95;100.00;100686.13;6272603;28;20414;-74
2022/04/01 11:37:15;;;;;;;1.45;1.00;;;;;;;2.96;100.00;100686.13;6271331;28;20060;-74
2022/04/01 11:40:21;;;;;;;4.80;1.25;;;;;;;2.94;100.00;100689.63;6268306;28;20045;-72
2022/04/01 11:43:24;;;;;;;2.05;1.63;;;;;;;2.91;100.00;100684.53;6266373;28;20055;-74
2022/04/01 11:46:25;;;;;;;1.67;1.38;;;;;;;2.98;100.00;100689.53;6274205;28;20056;-74
2022/04/01 11:49:28;;;;;;;2.38;0.80;;;;;;;2.90;100.00;100698.38;6272023;28;20045;-74
2022/04/01 11:52:36;;;;;;;2.22;1.00;;;;;;;2.85;100.00;100695.88;6270046;28;20049;-73
2022/04/01 11:55:43;;;;;;;1.30;0.98;;;;;;;2.93;100.00;100687.94;6273182;28;20049;-73
2022/04/01 11:58:54;;;;;;;1.63;1.00;;;;;;;3.02;100.00;100683.38;6274209;28;20060;-74
2022/04/01 12:01:55;;;;;;;1.08;0.98;;;;;;;3.05;100.00;100677.28;6271204;28;20045;-73
2022/04/01 12:04:57;;;;;;;2.35;1.10;;;;;;;3.11;100.00;100674.53;6268623;28;20056;-74
2022/04/01 12:11:21;;;;;;;2.55;1.50;;;;;;;3.01;100.00;100692.06;6275704;28;20044;-73
2022/04/01 12:14:23;;;;;;;5.65;2.25;;;;;;;2.98;100.00;100693.88;6273426;28;20045;-73
2022/04/01 12:17:25;;;;;;;2.03;1.00;;;;;;;2.95;100.00;100678.34;6268267;28;20508;-74
2022/04/01 12:20:28;;;;;;;1.70;1.35;;;;;;;3.03;100.00;100679.03;6268841;28;20041;-75
2022/04/01 12:23:33;;;;;;;3.72;1.50;;;;;;;3.17;100.00;100670.91;6266057;28;20049;-74
2022/04/01 12:26:35;;;;;;;1.52;0.80;;;;;;;3.25;100.00;100667.25;6273746;28;20056;-74
2022/04/01 12:29:37;;;;;;;4.28;2.15;;;;;;;3.36;100.00;100671.31;6280330;28;20051;-73
2022/04/01 12:32:38;;;;;;;8.77;4.65;;;;;;;3.52;100.00;100665.69;6274157;28;20117;-73
2022/04/01 12:35:55;;;;;;;4.05;1.90;;;;;;;3.66;100.00;100678.34;6270849;28;20412;-73
2022/04/01 12:39:02;;;;;;;2.00;1.30;;;;;;;3.53;100.00;100674.34;6271970;28;20488;-73
2022/04/01 12:42:09;;;;;;;6.25;2.67;;;;;;;3.51;100.00;100666.59;6270296;28;20045;-74
2022/04/01 12:45:10;;;;;;;7.78;2.90;;;;;;;3.46;100.00;100668.47;6266962;28;20436;-74
2022/04/01 12:48:24;;;;;;;10.13;4.15;;;;;;;3.52;100.00;100672.66;6268666;28;20048;-74
2022/04/01 12:51:27;;;;;;;15.25;4.47;;;;;;;3.65;100.00;100681.00;6261785;28;20070;-74
2022/04/01 12:54:36;;;;;;;17.45;5.80;;;;;;;3.71;100.00;100673.03;6263326;28;20067;-75
2022/04/01 12:57:51;;;;;;;13.60;4.13;;;;;;;3.77;100.00;100678.94;6270234;28;20449;-74
2022/04/01 13:00:52;;;;;;;4.35;2.75;;;;;;;3.76;100.00;100669.41;6278516;28;20056;-75
2022/04/01 13:03:56;;;;;;;10.85;3.50;;;;;;;3.82;100.00;100665.81;6272618;28;20052;-75
2022/04/01 13:07:09;;;;;;;10.80;3.58;;;;;;;3.83;99.16;100670.09;6272368;28;20078;-74
2022/04/01 13:10:15;;;;;;;13.90;4.45;;;;;;;3.87;100.00;100676.09;6272265;28;20049;-74
2022/04/01 13:13:20;;;;;;;26.38;9.13;;;;;;;3.86;97.59;100677.84;6272094;28;20138;-75
2022/04/01 13:16:21;;;;;;;4.40;1.90;;;;;;;3.84;97.88;100671.81;6272286;28;20083;-75
2022/04/01 13:19:26;;;;;;;8.20;3.95;;;;;;;3.81;98.14;100666.69;6271976;28;20501;-74
2022/04/01 13:22:28;;;;;;;7.57;1.98;;;;;;;3.79;93.03;100669.31;6270052;28;20197;-74
2022/04/01 13:25:30;;;;;;;3.40;2.15;;;;;;;3.83;95.15;100662.31;6266458;28;20055;-74
2022/04/01 13:28:33;;;;;;;11.75;3.97;;;;;;;3.94;96.04;100662.84;6267411;28;20060;-75
2022/04/01 13:31:35;;;;;;;9.93;2.75;;;;;;;4.04;97.05;100664.34;6268712;28;20049;-74
2022/04/01 13:34:37;;;;;;;6.70;3.40;;;;;;;4.11;97.53;100662.41;6271635;28;20061;-75
2022/04/01 13:37:39;;;;;;;10.73;3.75;;;;;;;4.12;94.05;100652.84;6272009;28;20060;-76
2022/04/01 13:40:40;;;;;;;10.50;4.57;;;;;;;4.24;95.95;100653.34;6270950;28;20500;-73
2022/04/01 13:43:42;;;;;;;11.07;3.35;;;;;;;4.39;96.29;100648.59;6272502;28;20053;-76
2022/04/01 13:46:44;;;;;;;11.27;3.72;;;;;;;4.40;89.69;100653.75;6283061;28;20060;-76
2022/04/01 13:49:46;;;;;;;10.73;3.92;;;;;;;4.36;89.72;100664.28;6295788;28;20045;-76
2022/04/01 13:52:48;;;;;;;8.18;3.35;;;;;;;4.24;88.50;100660.31;6280113;28;20048;-76
2022/04/01 13:55:49;;;;;;;5.30;1.85;;;;;;;4.20;89.69;100656.94;6266653;28;20060;-76
2022/04/01 13:58:52;;;;;;;2.05;1.60;;;;;;;4.20;88.11;100661.28;6261714;28;20070;-76
2022/04/01 14:01:54;;;;;;;4.80;2.63;;;;;;;4.15;87.74;100653.63;6270649;28;20040;-76
2022/04/01 14:04:55;;;;;;;3.33;1.75;;;;;;;4.19;88.62;100657.00;6271223;28;20049;-75
2022/04/01 14:07:57;;;;;;;0.65;0.63;;;;;;;4.18;87.00;100653.53;6271553;28;20756;-76
2022/04/01 14:10:59;;;;;;;1.73;1.00;;;;;;;4.19;89.39;100660.44;6270808;28;20041;-76
2022/04/01 14:14:02;;;;;;;3.58;1.15;;;;;;;4.24;86.55;100666.34;6271122;28;20057;-76
2022/04/01 14:17:05;;;;;;;1.05;0.90;;;;;;;4.32;81.73;100651.38;6271274;28;20421;-77
2022/04/01 14:20:08;;;;;;;2.45;0.90;;;;;;;4.39;83.41;100659.84;6270576;28;20152;-76